Time;durP1;ratioP1;P1;durP2;ratioP2;P2;SDS_P1;SDS_P2;PMS_P1;PMS_P2;Temp;Humidity;BMP_temperature;BMP_pressure;BME280_temperature;BME280_humidity;BME280_pressure;Samples;Min_cycle;Max_cycle;Signal;HPM_P1;HPM_P2
2021/04/21 00:02:08;;;;;;;9.52;8.52;;;15.90;60.50;;;;;;6138697;23;20352;-76
2021/04/21 00:04:37;;;;;;;9.73;8.73;;;15.90;60.50;;;;;;6138806;23;20042;-76
2021/04/21 00:07:04;;;;;;;10.95;8.20;;;15.90;60.40;;;;;;6138616;23;20296;-78
2021/04/21 00:09:31;;;;;;;11.90;8.90;;;15.90;60.40;;;;;;6137518;23;20013;-76
2021/04/21 00:11:58;;;;;;;10.18;9.02;;;15.90;60.40;;;;;;6138820;23;20014;-77
2021/04/21 00:14:25;;;;;;;9.60;8.40;;;15.90;60.50;;;;;;6128822;23;20009;-77
2021/04/21 00:16:57;;;;;;;10.60;8.27;;;15.80;60.30;;;;;;6139124;23;20092;-77
2021/04/21 00:19:25;;;;;;;10.25;9.02;;;15.80;60.30;;;;;;6138503;23;20021;-76
2021/04/21 00:21:55;;;;;;;10.80;8.75;;;15.80;60.20;;;;;;6138900;23;20018;-75
2021/04/21 00:24:24;;;;;;;9.90;8.90;;;15.80;60.20;;;;;;6139189;23;20022;-76
2021/04/21 00:26:51;;;;;;;11.15;9.05;;;15.80;60.10;;;;;;6137995;23;20053;-75
2021/04/21 00:29:18;;;;;;;10.52;8.13;;;15.80;60.30;;;;;;6138593;23;20010;-76
2021/04/21 00:31:47;;;;;;;10.98;8.68;;;15.70;60.20;;;;;;6137974;23;20029;-79
2021/04/21 00:34:16;;;;;;;9.77;8.48;;;15.80;60.50;;;;;;6138386;23;20014;-76
2021/04/21 00:36:45;;;;;;;10.20;8.50;;;15.80;60.50;;;;;;6138020;23;20090;-76
2021/04/21 00:39:12;;;;;;;10.60;9.32;;;15.70;60.30;;;;;;6138958;23;20089;-75
2021/04/21 00:41:56;;;;;;;10.85;8.60;;;15.70;60.20;;;;;;6137044;23;20069;-75
2021/04/21 00:44:30;;;;;;;9.38;8.32;;;15.70;60.30;;;;;;6138544;23;20009;-76
2021/04/21 00:47:01;;;;;;;9.68;8.55;;;15.70;60.30;;;;;;6138995;23;20475;-74
2021/04/21 00:50:00;;;;;;;9.93;8.30;;;15.70;60.30;;;;;;6137893;23;20475;-75
2021/04/21 00:52:45;;;;;;;10.45;8.20;;;15.70;60.30;;;;;;6127870;23;20013;-75
2021/04/21 00:55:30;;;;;;;10.43;8.57;;;15.60;60.40;;;;;;6139065;23;20050;-76
2021/04/21 00:58:10;;;;;;;10.10;8.65;;;15.70;60.60;;;;;;6137993;23;20416;-76
2021/04/21 01:00:42;;;;;;;9.52;7.95;;;15.60;60.20;;;;;;6138157;23;20019;-76
2021/04/21 01:03:21;;;;;;;9.38;8.35;;;15.70;60.80;;;;;;6137857;23;20416;-76
2021/04/21 01:06:08;;;;;;;9.65;8.15;;;15.60;60.10;;;;;;6138211;23;20013;-75
2021/04/21 01:08:40;;;;;;;9.68;7.70;;;15.60;60.30;;;;;;6138252;23;20064;-76
2021/04/21 01:11:23;;;;;;;9.82;7.50;;;15.60;60.60;;;;;;6138559;23;20013;-77
2021/04/21 01:13:53;;;;;;;10.63;7.85;;;15.60;60.70;;;;;;6137953;23;20423;-76
2021/04/21 01:16:24;;;;;;;9.15;8.15;;;15.60;60.80;;;;;;6137735;23;20014;-76
2021/04/21 01:18:54;;;;;;;8.55;7.65;;;15.60;60.60;;;;;;6138509;23;20025;-76
2021/04/21 01:21:31;;;;;;;9.98;7.60;;;15.60;60.80;;;;;;6138173;23;20057;-76
2021/04/21 01:24:26;;;;;;;8.70;7.18;;;15.60;61.20;;;;;;6138280;23;20014;-76
2021/04/21 01:27:08;;;;;;;11.88;8.10;;;15.60;60.20;;;;;;6138193;23;20010;-78
2021/04/21 01:29:37;;;;;;;10.30;7.45;;;15.60;60.60;;;;;;6138072;23;20010;-78
2021/04/21 01:32:10;;;;;;;9.23;7.78;;;15.60;60.90;;;;;;6137081;23;20096;-75
2021/04/21 01:34:38;;;;;;;8.32;7.32;;;15.60;60.90;;;;;;6138234;23;20014;-76
2021/04/21 01:37:06;;;;;;;8.90;7.60;;;15.50;60.90;;;;;;6138452;23;20013;-77
2021/04/21 01:39:36;;;;;;;10.20;7.28;;;15.60;60.90;;;;;;6140412;23;20040;-76
2021/04/21 01:42:03;;;;;;;8.57;7.38;;;15.50;60.80;;;;;;6139753;23;20082;-77
2021/04/21 01:44:40;;;;;;;8.65;7.28;;;15.50;60.70;;;;;;6140220;23;20014;-78
2021/04/21 01:47:13;;;;;;;8.35;6.85;;;15.50;60.50;;;;;;6139978;23;20038;-77
2021/04/21 01:49:38;;;;;;;8.20;6.80;;;15.50;60.60;;;;;;6140637;23;20020;-77
2021/04/21 01:52:26;;;;;;;6.95;6.25;;;15.50;60.60;;;;;;6139980;23;20010;-77
2021/04/21 01:54:56;;;;;;;8.55;6.57;;;15.50;60.00;;;;;;6140666;23;20010;-75
2021/04/21 01:57:59;;;;;;;9.20;7.50;;;15.50;60.40;;;;;;6139799;23;20010;-78
2021/04/21 02:00:48;;;;;;;8.25;7.30;;;15.40;60.10;;;;;;6139685;23;20018;-76
2021/04/21 02:03:47;;;;;;;8.68;7.40;;;15.40;60.60;;;;;;6128845;23;20069;-78
2021/04/21 02:06:36;;;;;;;9.63;7.50;;;15.40;59.70;;;;;;6109127;23;20017;-75
2021/04/21 02:09:36;;;;;;;9.85;7.75;;;15.40;60.50;;;;;;6130177;23;20085;-76
2021/04/21 02:12:08;;;;;;;8.63;7.57;;;15.40;60.40;;;;;;6139846;23;20014;-76
2021/04/21 02:15:06;;;;;;;10.13;7.72;;;15.40;60.70;;;;;;6129407;23;20296;-76
2021/04/21 02:18:01;;;;;;;10.25;7.78;;;15.40;60.30;;;;;;6029266;23;20022;-75
2021/04/21 02:20:33;;;;;;;9.25;7.80;;;15.40;60.20;;;;;;6139594;23;20041;-76
2021/04/21 02:23:11;;;;;;;9.32;7.07;;;15.40;61.00;;;;;;6139757;23;20053;-77
2021/04/21 02:25:56;;;;;;;8.60;7.53;;;15.40;60.40;;;;;;6139871;23;20010;-75
2021/04/21 02:28:44;;;;;;;8.57;7.57;;;15.40;60.50;;;;;;6139480;23;20108;-76
2021/04/21 02:31:32;;;;;;;8.88;7.82;;;15.40;60.80;;;;;;6139624;23;20020;-79
2021/04/21 02:34:30;;;;;;;9.93;7.97;;;15.40;60.90;;;;;;6139592;23;20076;-77
2021/04/21 02:37:19;;;;;;;10.10;8.05;;;15.30;60.50;;;;;;6139459;23;20010;-76
2021/04/21 02:40:12;;;;;;;8.90;7.47;;;15.30;60.30;;;;;;6129892;23;20089;-76
2021/04/21 02:43:02;;;;;;;8.93;7.72;;;15.30;61.10;;;;;;6139236;23;20010;-75
2021/04/21 02:45:51;;;;;;;9.40;8.18;;;15.30;60.80;;;;;;6139497;23;20010;-77
2021/04/21 02:48:55;;;;;;;10.40;8.48;;;15.30;59.90;;;;;;6075402;23;20017;-76
2021/04/21 02:51:54;;;;;;;11.55;8.15;;;15.30;60.00;;;;;;6128654;23;20021;-77
2021/04/21 02:54:47;;;;;;;11.25;8.68;;;15.30;60.50;;;;;;6130627;23;20028;-75
2021/04/21 02:57:30;;;;;;;9.85;8.00;;;15.30;60.50;;;;;;6073776;23;20088;-77
2021/04/21 03:00:32;;;;;;;9.75;8.75;;;15.20;60.90;;;;;;6138175;23;20017;-77
2021/04/21 03:03:19;;;;;;;10.20;8.95;;;15.20;60.40;;;;;;6122128;23;20017;-79
2021/04/21 03:05:50;;;;;;;11.68;9.45;;;15.20;60.70;;;;;;6139270;23;20025;-76
2021/04/21 03:08:24;;;;;;;9.73;8.32;;;15.20;61.00;;;;;;6139283;23;20081;-76
2021/04/21 03:11:12;;;;;;;11.13;8.77;;;15.20;61.00;;;;;;6139349;23;20029;-77
2021/04/21 03:14:01;;;;;;;10.23;8.80;;;15.20;60.80;;;;;;6139297;23;20068;-77
2021/04/21 03:16:30;;;;;;;10.75;8.43;;;15.20;60.80;;;;;;6129113;23;20431;-76
2021/04/21 03:18:59;;;;;;;11.38;8.57;;;15.20;61.10;;;;;;6139115;23;20038;-76
2021/04/21 03:21:30;;;;;;;9.25;8.25;;;15.20;61.20;;;;;;6139042;23;20013;-76
2021/04/21 03:24:17;;;;;;;10.95;8.93;;;15.20;61.10;;;;;;6139052;23;20040;-77
2021/04/21 03:26:48;;;;;;;11.77;8.85;;;15.20;60.50;;;;;;6139059;23;20021;-77
2021/04/21 03:29:21;;;;;;;9.60;8.60;;;15.20;61.10;;;;;;6139272;23;20041;-76
2021/04/21 03:31:48;;;;;;;9.20;8.30;;;15.20;61.20;;;;;;6139768;23;20009;-76
2021/04/21 03:34:17;;;;;;;10.52;8.98;;;15.20;61.20;;;;;;6138909;23;20013;-79
2021/04/21 03:36:43;;;;;;;11.43;9.02;;;15.20;61.10;;;;;;6139075;23;20018;-75
2021/04/21 03:39:11;;;;;;;10.63;8.90;;;15.20;61.20;;;;;;6139057;23;20025;-76
2021/04/21 03:41:37;;;;;;;10.88;9.27;;;15.20;61.20;;;;;;6138960;23;20021;-76
2021/04/21 03:44:05;;;;;;;11.98;9.27;;;15.20;61.30;;;;;;6139241;23;20400;-77
2021/04/21 03:46:32;;;;;;;10.45;8.73;;;15.20;61.30;;;;;;6139029;23;20017;-78
2021/04/21 03:49:00;;;;;;;9.98;8.82;;;15.20;61.40;;;;;;6138275;23;20093;-77
2021/04/21 03:51:26;;;;;;;13.52;9.60;;;15.20;61.30;;;;;;6139562;23;20032;-76
2021/04/21 03:53:53;;;;;;;11.13;9.73;;;15.10;61.10;;;;;;6132108;23;20092;-77
2021/04/21 03:56:24;;;;;;;12.25;9.93;;;15.10;61.20;;;;;;6138641;23;20021;-75
2021/04/21 03:58:53;;;;;;;12.20;9.50;;;15.10;61.10;;;;;;6138600;23;20092;-76
2021/04/21 04:01:22;;;;;;;10.25;9.20;;;15.10;61.00;;;;;;6128296;23;20045;-76
2021/04/21 04:04:02;;;;;;;10.27;9.27;;;15.10;61.20;;;;;;6139129;23;20014;-76
2021/04/21 04:06:41;;;;;;;10.55;8.75;;;15.10;60.90;;;;;;6138494;23;20013;-75
2021/04/21 04:09:09;;;;;;;12.23;9.95;;;15.10;60.70;;;;;;6138675;23;20024;-77
2021/04/21 04:11:43;;;;;;;12.43;9.68;;;15.10;61.10;;;;;;6138520;23;20340;-77
2021/04/21 04:14:29;;;;;;;12.43;10.05;;;15.10;61.40;;;;;;6139268;23;20025;-76
2021/04/21 04:16:58;;;;;;;12.32;9.75;;;15.10;61.00;;;;;;6128490;23;20021;-77
2021/04/21 04:19:25;;;;;;;14.95;10.77;;;15.10;61.30;;;;;;6139109;23;20089;-76
2021/04/21 04:22:04;;;;;;;10.85;9.25;;;15.10;61.50;;;;;;6138610;23;20049;-77
2021/04/21 04:24:42;;;;;;;13.82;7.95;;;15.20;61.90;;;;;;6137112;23;20102;-75
2021/04/21 04:27:22;;;;;;;17.00;7.95;;;15.20;61.70;;;;;;6137872;23;20044;-79
2021/04/21 04:29:53;;;;;;;12.02;7.47;;;15.30;61.70;;;;;;6156995;23;20284;-79
2021/04/21 04:32:24;;;;;;;17.35;6.78;;;15.40;61.60;;;;;;6167771;23;20005;-74
2021/04/21 04:34:52;;;;;;;12.07;6.70;;;15.70;61.30;;;;;;6166899;23;20064;-78
2021/04/21 04:37:19;;;;;;;9.45;6.18;;;15.90;61.10;;;;;;6158002;23;20031;-77
2021/04/21 04:39:46;;;;;;;13.27;5.85;;;16.20;61.10;;;;;;6167762;23;20009;-76
2021/04/21 04:42:17;;;;;;;13.88;5.38;;;16.40;61.00;;;;;;6157739;23;20352;-83
2021/04/21 04:44:52;;;;;;;16.75;7.22;;;16.60;60.90;;;;;;6133678;23;20005;-81
2021/04/21 04:47:52;;;;;;;12.35;5.10;;;16.70;60.30;;;;;;6132288;23;20020;-81
2021/04/21 04:50:23;;;;;;;15.48;5.72;;;16.90;61.30;;;;;;6132307;23;20434;-79
2021/04/21 04:52:51;;;;;;;14.57;5.97;;;16.90;61.10;;;;;;6132223;23;20409;-76
2021/04/21 04:55:20;;;;;;;11.50;5.38;;;17.00;61.30;;;;;;6167987;23;20044;-83
2021/04/21 04:57:49;;;;;;;17.70;5.80;;;17.10;61.40;;;;;;6167511;23;20300;-77
2021/04/21 05:00:19;;;;;;;12.38;5.55;;;17.10;61.30;;;;;;6167445;23;20014;-75
2021/04/21 05:03:00;;;;;;;18.45;6.38;;;17.10;61.60;;;;;;6142796;23;20421;-78
2021/04/21 05:05:27;;;;;;;13.25;6.28;;;17.20;62.00;;;;;;6167214;23;20032;-79
2021/04/21 05:08:07;;;;;;;15.13;6.65;;;17.10;59.10;;;;;;6157871;23;20092;-80
2021/04/21 05:10:51;;;;;;;15.73;6.07;;;17.00;61.70;;;;;;6157467;23;20406;-80
2021/04/21 05:13:20;;;;;;;;;;;17.00;62.00;;;;;;6167871;23;20017;-77
2021/04/21 05:15:52;;;;;;;15.13;5.47;;;17.10;62.70;;;;;;6168080;23;20297;-79
2021/04/21 05:18:36;;;;;;;18.23;5.38;;;17.10;62.50;;;;;;6142008;23;20088;-84
2021/04/21 05:21:39;;;;;;;14.98;5.60;;;17.30;62.50;;;;;;6131837;23;20020;-83
2021/04/21 05:24:40;;;;;;;21.70;6.10;;;17.40;62.60;;;;;;6132085;23;20014;-83
2021/04/21 05:27:21;;;;;;;16.08;4.93;;;17.60;62.40;;;;;;6132196;23;20021;-82
2021/04/21 05:30:06;;;;;;;13.60;5.25;;;17.70;62.80;;;;;;6142113;23;20033;-83
2021/04/21 05:32:53;;;;;;;16.95;5.40;;;17.80;62.00;;;;;;6157677;23;20021;-84
2021/04/21 05:35:42;;;;;;;15.07;5.00;;;17.90;61.90;;;;;;6165987;23;20081;-83
2021/04/21 05:38:27;;;;;;;10.43;5.07;;;18.00;61.50;;;;;;6167350;23;20013;-82
2021/04/21 05:41:01;;;;;;;19.38;5.32;;;18.10;61.40;;;;;;6131978;23;20009;-75
2021/04/21 05:43:33;;;;;;;19.73;5.65;;;18.10;61.40;;;;;;6106689;23;20014;-82
2021/04/21 05:46:54;;;;;;;16.90;5.82;;;18.10;61.20;;;;;;6107426;23;20088;-71
2021/04/21 05:49:44;;;;;;;20.45;6.50;;;18.00;61.20;;;;;;6132973;23;20013;-82
2021/04/21 05:52:43;;;;;;;18.15;6.25;;;18.00;61.30;;;;;;6157221;23;20044;-82
2021/04/21 05:55:38;;;;;;;20.27;8.27;;;18.00;61.40;;;;;;6107482;23;20021;-81
2021/04/21 05:58:23;;;;;;;20.30;7.80;;;18.00;60.70;;;;;;6106698;23;20009;-82
2021/04/21 06:01:02;;;;;;;18.73;7.70;;;18.00;58.50;;;;;;6133122;23;20032;-81
2021/04/21 06:03:31;;;;;;;20.90;7.63;;;17.90;60.80;;;;;;6107284;23;20009;-83
2021/04/21 06:06:23;;;;;;;23.77;7.15;;;18.00;60.90;;;;;;6107700;23;20088;-81
2021/04/21 06:08:48;;;;;;;25.55;7.75;;;18.00;61.00;;;;;;6156610;23;20017;-82
2021/04/21 06:11:19;;;;;;;24.65;7.30;;;18.00;61.10;;;;;;6157071;23;20349;-82
2021/04/21 06:13:48;;;;;;;33.75;8.63;;;18.00;61.20;;;;;;6141858;23;20036;-81
2021/04/21 06:16:20;;;;;;;25.55;7.38;;;18.00;61.10;;;;;;6141655;23;20013;-82
2021/04/21 06:18:55;;;;;;;20.52;7.05;;;18.00;60.90;;;;;;6132507;23;20009;-82
2021/04/21 06:21:23;;;;;;;23.77;7.00;;;18.00;60.70;;;;;;6157372;23;20031;-82
2021/04/21 06:23:53;;;;;;;23.88;7.20;;;18.00;60.70;;;;;;6167644;23;20107;-82
2021/04/21 06:26:28;;;;;;;15.80;6.03;;;18.00;60.40;;;;;;6168907;23;20005;-82
2021/04/21 06:29:20;;;;;;;21.60;7.60;;;18.10;60.80;;;;;;6158966;23;20009;-82
2021/04/21 06:31:52;;;;;;;17.67;6.95;;;18.00;60.00;;;;;;6127489;23;20411;-82
2021/04/21 06:34:18;;;;;;;17.65;6.43;;;18.00;60.00;;;;;;6143349;23;20040;-82
2021/04/21 06:36:50;;;;;;;13.90;5.85;;;18.00;60.00;;;;;;6143265;23;20023;-82
2021/04/21 06:39:22;;;;;;;15.05;5.88;;;18.00;59.90;;;;;;6159363;23;20009;-82
2021/04/21 06:42:00;;;;;;;13.75;6.28;;;18.00;59.90;;;;;;6159599;23;20391;-82
2021/04/21 06:44:31;;;;;;;13.93;5.60;;;17.90;59.80;;;;;;6133261;23;20010;-82
2021/04/21 06:46:58;;;;;;;14.15;5.80;;;17.90;59.80;;;;;;6143267;23;20048;-81
2021/04/21 06:49:24;;;;;;;17.10;6.47;;;17.90;59.70;;;;;;6158815;23;20350;-84
2021/04/21 06:51:50;;;;;;;15.32;6.00;;;18.00;59.70;;;;;;6157241;23;20037;-87
2021/04/21 06:54:21;;;;;;;13.82;5.53;;;18.00;59.60;;;;;;6135150;23;20014;-82
2021/04/21 06:56:49;;;;;;;12.63;4.82;;;18.00;59.70;;;;;;6098247;23;20010;-82
2021/04/21 06:59:19;;;;;;;14.25;5.55;;;18.00;59.70;;;;;;6099174;23;20064;-82
2021/04/21 07:01:49;;;;;;;10.35;5.30;;;18.10;59.60;;;;;;6098473;23;20412;-82
2021/04/21 07:04:19;;;;;;;10.98;4.93;;;18.10;59.60;;;;;;6099421;23;20007;-81
2021/04/21 07:06:50;;;;;;;12.02;4.78;;;18.10;59.50;;;;;;6108341;23;20018;-83
2021/04/21 07:09:20;;;;;;;;;;;18.20;59.40;;;;;;6100446;23;20065;-82
2021/04/21 07:11:57;;;;;;;8.98;4.55;;;18.20;59.30;;;;;;6099631;23;20251;-83
2021/04/21 07:14:23;;;;;;;9.27;4.85;;;18.20;59.40;;;;;;6098942;23;20069;-83
2021/04/21 07:16:54;;;;;;;9.13;4.53;;;18.10;59.40;;;;;;6099791;23;20011;-82
2021/04/21 07:19:22;;;;;;;11.40;5.03;;;18.10;59.40;;;;;;6074704;23;20010;-84
2021/04/21 07:21:49;;;;;;;9.30;4.47;;;18.10;59.40;;;;;;6108634;23;20476;-82
2021/04/21 07:24:18;;;;;;;6.38;4.13;;;18.10;59.50;;;;;;6123064;23;20010;-83
2021/04/21 07:26:46;;;;;;;7.28;4.22;;;18.10;59.60;;;;;;6108492;23;20006;-81
2021/04/21 07:29:22;;;;;;;7.65;4.10;;;18.10;59.60;;;;;;6099279;23;20293;-83
2021/04/21 07:31:50;;;;;;;6.38;4.05;;;18.00;59.50;;;;;;6097692;23;20077;-82
2021/04/21 07:34:34;;;;;;;8.57;3.83;;;18.00;59.60;;;;;;6099709;23;20006;-81
2021/04/21 07:37:00;;;;;;;8.57;3.80;;;18.00;59.60;;;;;;6122896;23;20010;-81
2021/04/21 07:39:40;;;;;;;7.57;3.78;;;18.00;59.60;;;;;;6099949;23;20014;-81
2021/04/21 07:42:18;;;;;;;6.63;3.40;;;18.00;59.50;;;;;;6099313;23;20085;-82
2021/04/21 07:44:52;;;;;;;6.53;3.70;;;17.90;59.30;;;;;;6109155;23;20018;-81
2021/04/21 07:47:24;;;;;;;11.20;3.83;;;17.90;59.50;;;;;;6108094;23;20006;-83
2021/04/21 07:50:00;;;;;;;7.07;3.38;;;17.90;59.40;;;;;;6099484;23;20051;-81
2021/04/21 07:52:31;;;;;;;11.50;3.70;;;17.90;59.20;;;;;;6099447;23;20081;-81
2021/04/21 07:55:16;;;;;;;5.85;3.33;;;18.00;59.10;;;;;;6115583;23;20010;-82
2021/04/21 07:58:01;;;;;;;6.13;3.47;;;18.00;58.90;;;;;;6157043;23;20009;-82
2021/04/21 08:00:29;;;;;;;6.70;3.33;;;17.90;58.80;;;;;;6132452;23;20037;-80
2021/04/21 08:03:25;;;;;;;7.05;2.53;;;17.90;58.40;;;;;;6137253;23;20032;-82
2021/04/21 08:05:52;;;;;;;6.20;2.65;;;17.90;58.80;;;;;;6168156;23;20010;-81
2021/04/21 08:08:35;;;;;;;8.23;2.53;;;17.90;58.80;;;;;;6168020;23;20006;-82
2021/04/21 08:11:03;;;;;;;7.00;2.88;;;17.90;58.70;;;;;;6142209;23;20021;-82
2021/04/21 08:13:48;;;;;;;9.27;2.63;;;18.00;58.80;;;;;;6157957;23;20005;-81
2021/04/21 08:16:24;;;;;;;7.40;2.40;;;18.00;58.70;;;;;;6167615;23;20017;-83
2021/04/21 08:18:51;;;;;;;4.05;2.15;;;18.00;58.70;;;;;;6167871;23;20437;-82
2021/04/21 08:21:38;;;;;;;4.75;2.72;;;18.00;58.80;;;;;;6142198;23;20012;-82
2021/04/21 08:24:05;;;;;;;6.90;2.17;;;18.00;58.70;;;;;;6141883;23;20034;-82
2021/04/21 08:26:31;;;;;;;3.60;2.00;;;18.00;58.70;;;;;;6157993;23;20037;-82
2021/04/21 08:28:58;;;;;;;4.03;2.22;;;18.00;58.70;;;;;;6132320;23;20013;-81
2021/04/21 08:31:25;;;;;;;6.43;2.15;;;18.10;58.80;;;;;;6167858;23;20010;-83
2021/04/21 08:33:52;;;;;;;7.25;2.03;;;18.00;58.70;;;;;;6142141;23;20017;-81
2021/04/21 08:36:19;;;;;;;3.88;1.88;;;18.00;58.70;;;;;;6167476;23;20010;-82
2021/04/21 08:38:46;;;;;;;2.30;1.60;;;18.00;58.70;;;;;;6167767;23;20013;-81
2021/04/21 08:41:15;;;;;;;5.18;1.80;;;18.00;58.60;;;;;;6142699;23;20021;-81
2021/04/21 08:43:46;;;;;;;6.60;2.30;;;18.00;58.60;;;;;;6158112;23;20100;-80
2021/04/21 08:46:13;;;;;;;4.45;1.50;;;18.00;58.60;;;;;;6142022;23;20032;-80
2021/04/21 08:48:41;;;;;;;4.55;1.85;;;18.00;58.60;;;;;;6167349;23;20189;-80
2021/04/21 08:51:07;;;;;;;5.65;1.60;;;17.90;58.60;;;;;;6141920;23;20277;-81
2021/04/21 08:53:36;;;;;;;4.60;1.80;;;17.90;58.60;;;;;;6158196;23;20063;-80
2021/04/21 08:56:05;;;;;;;6.35;1.60;;;17.90;58.70;;;;;;6134841;23;20089;-80
2021/04/21 08:58:32;;;;;;;2.75;1.40;;;17.80;59.30;;;;;;6167622;23;20051;-81
2021/04/21 09:01:00;;;;;;;2.15;1.40;;;17.80;58.70;;;;;;6141802;23;20016;-79
2021/04/21 09:03:26;;;;;;;2.78;1.40;;;17.80;58.70;;;;;;6166031;23;20016;-82
2021/04/21 09:05:52;;;;;;;3.10;1.30;;;17.80;58.70;;;;;;6157608;23;20010;-82
2021/04/21 09:08:21;;;;;;;4.15;1.40;;;17.70;58.80;;;;;;6157966;23;20006;-81
2021/04/21 09:10:48;;;;;;;3.75;1.45;;;17.70;59.00;;;;;;6167419;23;20088;-81
2021/04/21 09:13:15;;;;;;;7.25;1.83;;;17.70;59.10;;;;;;6141555;23;20075;-81
2021/04/21 09:15:44;;;;;;;3.85;1.33;;;17.70;59.30;;;;;;6167764;23;20025;-81
2021/04/21 09:18:10;;;;;;;5.38;1.63;;;17.60;59.30;;;;;;6131937;23;20033;-81
2021/04/21 09:20:44;;;;;;;4.53;1.73;;;17.60;59.30;;;;;;6157558;23;20010;-82
2021/04/21 09:23:14;;;;;;;4.95;1.02;;;17.60;59.30;;;;;;6131625;23;20298;-81
2021/04/21 09:25:44;;;;;;;2.95;1.30;;;17.60;59.50;;;;;;6130698;23;20494;-82
2021/04/21 09:28:11;;;;;;;3.03;1.50;;;17.50;59.60;;;;;;6141073;23;20009;-81
2021/04/21 09:30:40;;;;;;;2.38;1.10;;;17.50;59.70;;;;;;6166675;23;20095;-81
2021/04/21 09:33:06;;;;;;;3.13;1.25;;;17.50;59.80;;;;;;6166652;23;20104;-81
2021/04/21 09:35:44;;;;;;;5.38;1.52;;;17.50;59.90;;;;;;6131039;23;20017;-81
2021/04/21 09:38:19;;;;;;;3.40;1.50;;;17.50;60.00;;;;;;6156791;23;20005;-81
2021/04/21 09:40:46;;;;;;;5.60;1.88;;;17.40;60.00;;;;;;6166647;23;20013;-82
2021/04/21 09:43:34;;;;;;;4.45;1.70;;;17.40;60.00;;;;;;6167071;23;20013;-76
2021/04/21 09:46:03;;;;;;;3.83;1.27;;;17.40;60.00;;;;;;6167589;23;20114;-82
2021/04/21 09:48:35;;;;;;;6.03;1.88;;;17.40;60.00;;;;;;6167090;23;20010;-81
2021/04/21 09:51:04;;;;;;;5.40;2.00;;;17.50;60.00;;;;;;6167199;23;20404;-81
2021/04/21 09:53:34;;;;;;;7.68;1.60;;;17.40;59.30;;;;;;6157398;23;20010;-82
2021/04/21 09:56:01;;;;;;;9.85;2.08;;;17.50;59.20;;;;;;6134134;23;20013;-81
2021/04/21 09:58:30;;;;;;;8.35;1.75;;;17.50;57.50;;;;;;6131924;23;20009;-82
2021/04/21 10:00:57;;;;;;;6.60;1.83;;;17.40;56.80;;;;;;6169013;23;20005;-81
2021/04/21 10:03:22;;;;;;;9.20;1.83;;;17.40;56.40;;;;;;6159484;23;20013;-81
2021/04/21 10:05:49;;;;;;;7.82;1.83;;;17.40;55.90;;;;;;6168854;23;20009;-82
2021/04/21 10:08:22;;;;;;;8.73;1.35;;;17.40;55.60;;;;;;6159805;23;20045;-79
2021/04/21 10:11:08;;;;;;;7.95;1.80;;;17.50;55.70;;;;;;6143833;23;20010;-81
2021/04/21 10:13:48;;;;;;;7.07;1.48;;;17.60;55.90;;;;;;6159391;23;20088;-79
2021/04/21 10:16:16;;;;;;;6.05;1.73;;;17.70;55.60;;;;;;6168766;23;20005;-80
2021/04/21 10:18:43;;;;;;;7.22;1.67;;;17.70;55.90;;;;;;6168850;23;20010;-77
2021/04/21 10:21:12;;;;;;;6.32;1.63;;;17.80;56.10;;;;;;6167518;23;20040;-81
2021/04/21 10:23:38;;;;;;;9.98;1.85;;;17.90;56.30;;;;;;6108967;23;20083;-78
2021/04/21 10:26:09;;;;;;;9.27;2.05;;;17.90;56.10;;;;;;6168994;23;20013;-77
2021/04/21 10:28:37;;;;;;;8.52;1.70;;;18.00;56.20;;;;;;6168601;23;20339;-78
2021/04/21 10:31:06;;;;;;;5.32;1.90;;;18.10;56.30;;;;;;6169048;23;20010;-78
2021/04/21 10:33:33;;;;;;;9.63;2.45;;;18.10;56.50;;;;;;6168887;23;20017;-77
2021/04/21 10:35:59;;;;;;;9.48;1.85;;;18.10;56.60;;;;;;6142969;23;20264;-78
2021/04/21 10:38:27;;;;;;;9.00;2.47;;;18.10;56.70;;;;;;6169153;23;20009;-78
2021/04/21 10:41:26;;;;;;;6.38;1.45;;;18.10;56.80;;;;;;6168985;23;20085;-78
2021/04/21 10:44:11;;;;;;;7.57;1.75;;;18.10;57.00;;;;;;6159729;23;20009;-78
2021/04/21 10:46:55;;;;;;;4.78;1.50;;;18.10;57.20;;;;;;6168659;23;20089;-78
2021/04/21 10:50:00;;;;;;;9.65;2.30;;;18.10;57.50;;;;;;6168307;23;20017;-78
2021/04/21 10:52:26;;;;;;;9.38;2.20;;;18.00;57.50;;;;;;6168284;23;20429;-78
2021/04/21 10:54:58;;;;;;;7.90;2.00;;;18.10;58.40;;;;;;6166674;23;20013;-78
2021/04/21 10:57:31;;;;;;;6.38;2.05;;;18.00;58.90;;;;;;6168182;23;20084;-80
2021/04/21 11:00:25;;;;;;;5.88;1.50;;;18.00;58.90;;;;;;6158353;23;20299;-81
2021/04/21 11:03:06;;;;;;;6.20;1.90;;;17.90;58.70;;;;;;6142857;23;20076;-75
2021/04/21 11:05:41;;;;;;;7.75;1.42;;;17.90;58.50;;;;;;6169278;23;20020;-83
2021/04/21 11:08:19;;;;;;;11.18;2.03;;;17.90;58.40;;;;;;6108546;23;20029;-84
2021/04/21 11:10:47;;;;;;;8.57;1.67;;;17.80;58.20;;;;;;6108283;23;20036;-84
2021/04/21 11:13:36;;;;;;;5.60;1.50;;;17.80;58.70;;;;;;6132396;23;20339;-83
2021/04/21 11:16:05;;;;;;;12.77;2.88;;;17.80;58.90;;;;;;6108828;23;20006;-84
2021/04/21 11:18:35;;;;;;;9.48;2.33;;;17.80;57.90;;;;;;6108657;23;20020;-78
2021/04/21 11:21:08;;;;;;;8.63;2.40;;;17.60;55.90;;;;;;6168177;23;20016;-84
2021/04/21 11:23:52;;;;;;;11.52;2.28;;;17.60;55.40;;;;;;6133006;23;20021;-78
2021/04/21 11:26:27;;;;;;;7.50;2.53;;;17.50;56.20;;;;;;6132782;23;20010;-83
2021/04/21 11:29:05;;;;;;;9.00;2.05;;;17.40;55.20;;;;;;6132613;23;20010;-83
2021/04/21 11:31:48;;;;;;;10.57;2.85;;;17.40;56.30;;;;;;6168305;23;20292;-76
2021/04/21 11:34:33;;;;;;;14.65;2.90;;;17.40;55.10;;;;;;6133371;23;20291;-87
2021/04/21 11:37:06;;;;;;;7.82;2.30;;;17.40;55.00;;;;;;6133268;23;20013;-83
2021/04/21 11:39:44;;;;;;;9.38;2.50;;;17.40;55.20;;;;;;6142596;23;20073;-79
2021/04/21 11:42:17;;;;;;;9.38;2.40;;;17.40;55.50;;;;;;6167882;23;20045;-85
2021/04/21 11:45:11;;;;;;;8.23;2.63;;;17.30;56.00;;;;;;6133362;23;20269;-81
2021/04/21 11:47:48;;;;;;;10.23;2.40;;;17.30;56.50;;;;;;6167934;23;20348;-81
2021/04/21 11:50:17;;;;;;;12.35;3.00;;;17.30;56.50;;;;;;6167849;23;20351;-83
2021/04/21 11:52:57;;;;;;;9.10;2.63;;;17.30;56.80;;;;;;6108034;23;20080;-84
2021/04/21 11:55:39;;;;;;;9.65;2.55;;;17.30;56.70;;;;;;6132832;23;20427;-80
2021/04/21 11:58:14;;;;;;;10.88;2.50;;;17.30;57.10;;;;;;6108450;23;20009;-86
2021/04/21 12:03:45;;;;;;;9.70;2.53;;;17.30;57.20;;;;;;6117139;23;20032;-86
2021/04/21 12:06:14;;;;;;;9.10;2.45;;;17.30;57.40;;;;;;6107695;23;20036;-87
2021/04/21 12:08:45;;;;;;;10.13;2.58;;;17.30;57.40;;;;;;6109255;23;20009;-86
2021/04/21 12:11:13;;;;;;;10.77;2.90;;;17.30;57.30;;;;;;6108219;23;20075;-85
2021/04/21 12:13:41;;;;;;;12.38;2.63;;;17.30;57.50;;;;;;6108804;23;20084;-82
2021/04/21 12:16:14;;;;;;;16.85;3.58;;;17.30;57.20;;;;;;6133202;23;20089;-84
2021/04/21 12:18:49;;;;;;;10.15;2.55;;;17.30;57.00;;;;;;6108241;23;20368;-86
2021/04/21 12:21:15;;;;;;;16.08;2.92;;;17.40;57.50;;;;;;6107235;23;20017;-85
2021/04/21 12:23:49;;;;;;;10.73;2.65;;;17.30;57.30;;;;;;6107775;23;20020;-89
2021/04/21 12:26:19;;;;;;;;;;;17.30;56.90;;;;;;6108440;23;20064;-87
2021/04/21 12:29:00;;;;;;;12.30;3.15;;;17.30;56.50;;;;;;6108406;23;19909;-83
2021/04/21 12:31:30;;;;;;;14.07;3.30;;;17.30;57.50;;;;;;6108052;23;20014;-82
2021/04/21 12:34:01;;;;;;;11.30;3.47;;;17.40;55.70;;;;;;6109004;23;20017;-85
2021/04/21 12:36:58;;;;;;;13.93;3.08;;;17.30;54.70;;;;;;6132074;23;20291;-84
2021/04/21 12:39:44;;;;;;;9.73;2.60;;;17.30;54.50;;;;;;6099779;23;20018;-74
2021/04/21 12:42:11;;;;;;;11.13;3.03;;;17.30;54.60;;;;;;6167350;23;20072;-81
2021/04/21 12:44:40;;;;;;;9.70;2.70;;;17.40;54.40;;;;;;6167346;23;20009;-82
2021/04/21 12:47:10;;;;;;;14.63;3.33;;;17.30;54.40;;;;;;6142054;23;20295;-81
2021/04/21 12:49:46;;;;;;;17.17;3.40;;;17.30;54.40;;;;;;6158135;23;20010;-81
2021/04/21 12:52:17;;;;;;;17.42;3.22;;;17.30;54.30;;;;;;6132546;23;20009;-82
2021/04/21 12:54:45;;;;;;;18.45;3.22;;;17.30;54.30;;;;;;6131531;23;20021;-81
2021/04/21 12:57:15;;;;;;;24.33;4.00;;;17.30;54.50;;;;;;6134013;23;20005;-81
2021/04/21 12:59:49;;;;;;;24.92;3.92;;;17.30;54.90;;;;;;6131912;23;20014;-81
2021/04/21 13:02:16;;;;;;;;;;;17.20;55.20;;;;;;6167535;23;20085;-81
2021/04/21 13:04:44;;;;;;;20.00;3.17;;;17.20;55.50;;;;;;6167674;23;20285;-79
2021/04/21 13:07:21;;;;;;;20.02;3.60;;;17.20;55.70;;;;;;6166784;23;20288;-80
2021/04/21 13:09:47;;;;;;;19.75;3.95;;;17.30;55.90;;;;;;6141387;23;20013;-85
2021/04/21 13:12:42;;;;;;;21.55;4.05;;;17.20;55.90;;;;;;6141558;23;20071;-85
2021/04/21 13:15:29;;;;;;;18.33;3.05;;;17.30;55.20;;;;;;6157670;23;20009;-86
2021/04/21 13:17:56;;;;;;;17.40;3.28;;;17.30;55.10;;;;;;6140811;23;20081;-80
2021/04/21 13:20:38;;;;;;;9.35;2.50;;;17.30;52.30;;;;;;6140697;23;20009;-79
2021/04/21 13:23:11;;;;;;;10.98;2.90;;;17.30;50.30;;;;;;6141532;23;20466;-79
2021/04/21 13:25:37;;;;;;;12.00;2.58;;;17.30;49.10;;;;;;6167562;23;20028;-79
2021/04/21 13:28:14;;;;;;;11.60;2.40;;;17.20;49.40;;;;;;6167280;23;20076;-77